Time;durP1;ratioP1;P1;durP2;ratioP2;P2;SDS_P1;SDS_P2;PMS_P1;PMS_P2;Temp;Humidity;BMP_temperature;BMP_pressure;BME280_temperature;BME280_humidity;BME280_pressure;Samples;Min_cycle;Max_cycle;Signal;HPM_P1;HPM_P2
2021/01/22 00:00:24;;;;;;;194.13;72.72;;;5.30;62.90;;;;;;5054999;28;20398;-69
2021/01/22 00:02:50;;;;;;;213.65;79.13;;;5.30;62.90;;;;;;5053316;28;20490;-73
2021/01/22 00:05:16;;;;;;;213.95;75.88;;;5.30;62.80;;;;;;5051003;28;20052;-71
2021/01/22 00:07:42;;;;;;;231.65;83.40;;;5.30;62.80;;;;;;5048292;28;20025;-74
2021/01/22 00:10:09;;;;;;;190.63;72.13;;;5.20;62.80;;;;;;5039235;28;20159;-74
2021/01/22 00:12:36;;;;;;;183.63;68.43;;;5.20;62.90;;;;;;5043512;28;20470;-81
2021/01/22 00:15:01;;;;;;;209.60;78.47;;;5.20;63.00;;;;;;5050274;28;20032;-72
2021/01/22 00:17:29;;;;;;;181.02;70.53;;;5.30;63.10;;;;;;5046801;28;20111;-71
2021/01/22 00:19:55;;;;;;;184.75;74.57;;;5.30;63.00;;;;;;5044507;28;20117;-74
2021/01/22 00:22:21;;;;;;;147.75;61.72;;;5.30;63.00;;;;;;5035709;28;20129;-72
2021/01/22 00:24:46;;;;;;;145.30;60.33;;;5.30;63.00;;;;;;5031757;28;20047;-71
2021/01/22 00:27:12;;;;;;;168.57;66.05;;;5.30;63.00;;;;;;5041283;28;20271;-71
2021/01/22 00:29:38;;;;;;;158.88;63.83;;;5.40;62.80;;;;;;5041918;28;20074;-70
2021/01/22 00:32:04;;;;;;;169.80;70.30;;;5.40;62.60;;;;;;5040770;28;20021;-72
2021/01/22 00:34:29;;;;;;;167.80;64.00;;;5.30;62.50;;;;;;5036778;28;20033;-70
2021/01/22 00:36:55;;;;;;;159.55;62.83;;;5.30;62.50;;;;;;5042983;28;20075;-77
2021/01/22 00:39:21;;;;;;;160.15;63.42;;;5.30;62.60;;;;;;5043638;28;20458;-72
2021/01/22 00:41:46;;;;;;;147.68;57.40;;;5.30;62.70;;;;;;5032450;28;20064;-72
2021/01/22 00:44:12;;;;;;;151.70;60.50;;;5.40;62.70;;;;;;5043016;28;20806;-74
2021/01/22 00:46:38;;;;;;;153.65;59.08;;;5.40;62.80;;;;;;5037036;28;20124;-73
2021/01/22 00:49:04;;;;;;;171.93;66.82;;;5.40;62.70;;;;;;5039320;28;20482;-70
2021/01/22 00:51:29;;;;;;;188.55;69.40;;;5.40;62.60;;;;;;5038254;28;20025;-70
2021/01/22 00:53:55;;;;;;;169.90;63.40;;;5.40;62.60;;;;;;5030989;28;20105;-77
2021/01/22 00:56:21;;;;;;;190.77;67.22;;;5.40;62.60;;;;;;5023575;28;20042;-73
2021/01/22 00:58:46;;;;;;;172.63;63.67;;;5.40;62.60;;;;;;5039219;28;20498;-74
2021/01/22 01:01:12;;;;;;;186.73;64.15;;;5.40;62.50;;;;;;5042455;28;20534;-80
2021/01/22 01:03:38;;;;;;;165.90;56.85;;;5.40;62.30;;;;;;5036640;28;20029;-71
2021/01/22 01:06:04;;;;;;;163.77;55.40;;;5.40;62.30;;;;;;5036874;28;20018;-71
2021/01/22 01:08:30;;;;;;;174.18;59.22;;;5.40;62.20;;;;;;5038867;28;20028;-71
2021/01/22 01:10:56;;;;;;;152.20;54.83;;;5.40;62.20;;;;;;5036272;28;20029;-76
2021/01/22 01:13:22;;;;;;;158.85;54.17;;;5.30;61.90;;;;;;5031877;28;20053;-76
2021/01/22 01:15:49;;;;;;;147.82;51.53;;;5.30;61.80;;;;;;5032999;28;20377;-76
2021/01/22 01:18:14;;;;;;;132.93;45.95;;;5.30;61.70;;;;;;5035971;28;20045;-76
2021/01/22 01:20:42;;;;;;;166.45;54.03;;;5.30;61.70;;;;;;5030620;28;20082;-76
2021/01/22 01:23:14;;;;;;;167.63;57.13;;;5.20;61.40;;;;;;5041870;28;20502;-72
2021/01/22 01:25:41;;;;;;;159.82;53.50;;;5.20;61.40;;;;;;5039631;28;20041;-73
2021/01/22 01:28:08;;;;;;;151.75;51.38;;;5.20;61.40;;;;;;5035172;28;20422;-71
2021/01/22 01:30:34;;;;;;;151.68;48.20;;;5.20;61.40;;;;;;5038657;28;20025;-70
2021/01/22 01:33:00;;;;;;;131.05;45.88;;;5.10;61.30;;;;;;5035029;28;20026;-70
2021/01/22 01:35:26;;;;;;;155.93;49.28;;;5.10;61.50;;;;;;5035642;28;20556;-76
2021/01/22 01:37:51;;;;;;;161.18;54.08;;;5.10;61.60;;;;;;5021271;28;20025;-78
2021/01/22 01:40:17;;;;;;;161.73;52.65;;;5.00;61.60;;;;;;5025065;28;20029;-68
2021/01/22 01:42:43;;;;;;;146.50;50.47;;;5.00;61.60;;;;;;5033861;28;20037;-70
2021/01/22 01:45:09;;;;;;;133.15;47.85;;;4.90;61.40;;;;;;5038654;28;20047;-70
2021/01/22 01:47:35;;;;;;;144.77;47.53;;;4.90;61.40;;;;;;5038703;28;20057;-71
2021/01/22 01:50:00;;;;;;;140.30;45.92;;;4.90;61.40;;;;;;5032288;28;20056;-73
2021/01/22 01:52:26;;;;;;;139.90;46.17;;;4.90;61.40;;;;;;5033502;28;20017;-74
2021/01/22 01:54:53;;;;;;;137.60;46.22;;;4.80;61.30;;;;;;5038081;28;20410;-72
2021/01/22 01:57:19;;;;;;;109.60;38.97;;;4.80;61.30;;;;;;5038403;28;20032;-70
2021/01/22 01:59:45;;;;;;;109.28;37.13;;;4.80;61.40;;;;;;5041033;28;20029;-71
2021/01/22 02:02:11;;;;;;;106.20;38.28;;;4.80;61.50;;;;;;5034242;28;20108;-68
2021/01/22 02:04:37;;;;;;;108.25;37.45;;;4.80;61.60;;;;;;5038481;28;20367;-73
2021/01/22 02:07:02;;;;;;;114.32;40.30;;;4.80;61.70;;;;;;5018348;28;20036;-73
2021/01/22 02:09:29;;;;;;;101.25;38.47;;;4.80;61.80;;;;;;5030600;28;20073;-73
2021/01/22 02:11:56;;;;;;;131.23;44.08;;;4.80;61.90;;;;;;5020784;28;20026;-74
2021/01/22 02:14:22;;;;;;;129.93;45.33;;;4.80;61.90;;;;;;5042006;28;20025;-73
2021/01/22 02:16:49;;;;;;;105.43;41.20;;;4.80;61.80;;;;;;5051728;28;20031;-71
2021/01/22 02:19:18;;;;;;;108.00;38.38;;;4.80;61.80;;;;;;5056210;28;20028;-68
2021/01/22 02:21:44;;;;;;;124.65;42.40;;;4.80;61.90;;;;;;5044253;28;20056;-74
2021/01/22 02:24:20;;;;;;;118.45;42.13;;;4.80;61.80;;;;;;5036955;28;20026;-72
2021/01/22 02:26:56;;;;;;;111.93;38.45;;;4.90;61.80;;;;;;5036543;28;20053;-70
2021/01/22 02:29:22;;;;;;;99.70;36.33;;;4.90;61.60;;;;;;5037407;28;20026;-70
2021/01/22 02:31:51;;;;;;;113.50;39.55;;;4.90;61.60;;;;;;5036228;28;20036;-70
2021/01/22 02:34:22;;;;;;;114.60;41.33;;;4.90;61.60;;;;;;5037030;28;20025;-70
2021/01/22 02:36:50;;;;;;;120.57;43.40;;;4.90;61.40;;;;;;5033714;28;20044;-68
2021/01/22 02:39:19;;;;;;;113.68;41.53;;;4.90;61.40;;;;;;5016918;28;20364;-69
2021/01/22 02:41:47;;;;;;;133.95;46.22;;;4.90;61.40;;;;;;5024616;28;20116;-70
2021/01/22 02:44:13;;;;;;;128.52;47.53;;;4.90;61.40;;;;;;5052285;28;20025;-69
2021/01/22 02:46:40;;;;;;;115.50;42.80;;;4.80;61.40;;;;;;5052851;28;20022;-74
2021/01/22 02:49:06;;;;;;;130.40;44.08;;;4.80;61.50;;;;;;5037073;28;20473;-74
2021/01/22 02:51:32;;;;;;;135.93;48.00;;;4.80;61.50;;;;;;5036026;28;20025;-75
2021/01/22 02:53:58;;;;;;;137.25;45.17;;;4.80;61.60;;;;;;5036339;28;20021;-71
2021/01/22 02:56:56;;;;;;;127.53;44.30;;;4.80;61.50;;;;;;5054107;28;20029;-74
2021/01/22 02:59:40;;;;;;;131.00;46.78;;;4.80;61.10;;;;;;5042324;28;20073;-71
2021/01/22 03:02:22;;;;;;;119.00;44.38;;;4.70;60.90;;;;;;5035806;28;20033;-76
2021/01/22 03:04:48;;;;;;;120.72;44.03;;;4.60;60.70;;;;;;5021173;28;20443;-72
2021/01/22 03:07:33;;;;;;;100.43;39.70;;;4.50;60.80;;;;;;5035936;28;20021;-73
2021/01/22 03:10:00;;;;;;;115.13;39.75;;;4.50;60.90;;;;;;5022791;28;20048;-74
2021/01/22 03:12:27;;;;;;;100.97;37.13;;;4.40;61.10;;;;;;5035799;28;20375;-76
2021/01/22 03:14:55;;;;;;;101.05;38.63;;;4.40;61.30;;;;;;5036874;28;20036;-73
2021/01/22 03:17:20;;;;;;;91.88;35.53;;;4.40;61.50;;;;;;5014626;28;20400;-71
2021/01/22 03:19:48;;;;;;;92.60;34.88;;;4.40;61.70;;;;;;5028138;28;20049;-70
2021/01/22 03:22:14;;;;;;;91.47;37.42;;;4.40;61.90;;;;;;5055343;28;20031;-70
2021/01/22 03:24:41;;;;;;;88.75;31.15;;;4.50;62.00;;;;;;5055391;28;20025;-71
2021/01/22 03:27:08;;;;;;;85.53;34.47;;;4.50;62.10;;;;;;5034955;28;20536;-74
2021/01/22 03:29:35;;;;;;;89.45;36.42;;;4.60;62.30;;;;;;5025024;28;20029;-70
2021/01/22 03:32:01;;;;;;;89.32;35.38;;;4.60;62.30;;;;;;5055358;28;20049;-72
2021/01/22 03:34:27;;;;;;;78.43;33.00;;;4.70;62.50;;;;;;5037769;28;20075;-71
2021/01/22 03:36:57;;;;;;;79.28;32.25;;;4.70;62.50;;;;;;5055477;28;20032;-71
2021/01/22 03:39:24;;;;;;;82.13;34.42;;;4.80;62.40;;;;;;5037821;28;20029;-73
2021/01/22 03:41:50;;;;;;;75.60;32.97;;;4.80;62.20;;;;;;5062918;28;20539;-73
2021/01/22 03:44:16;;;;;;;90.50;35.30;;;4.90;62.20;;;;;;5040865;28;20031;-72
2021/01/22 03:46:47;;;;;;;89.65;36.95;;;4.90;62.00;;;;;;5055639;28;20056;-82
2021/01/22 03:49:13;;;;;;;99.63;37.75;;;5.00;61.90;;;;;;5070516;28;20435;-77
2021/01/22 03:51:38;;;;;;;109.05;42.30;;;5.00;61.70;;;;;;5066042;28;20029;-76
2021/01/22 03:54:05;;;;;;;102.22;40.38;;;5.00;61.50;;;;;;5054683;28;20032;-76
2021/01/22 03:56:34;;;;;;;110.07;43.60;;;5.00;61.40;;;;;;5055423;28;20025;-73
2021/01/22 03:59:00;;;;;;;95.63;39.03;;;5.10;61.40;;;;;;5054942;28;20100;-74
2021/01/22 04:01:29;;;;;;;102.95;40.28;;;5.10;61.40;;;;;;5054512;28;20605;-77
2021/01/22 04:03:54;;;;;;;122.32;43.90;;;5.10;61.40;;;;;;5054943;28;20104;-73
2021/01/22 04:06:20;;;;;;;108.60;41.78;;;5.10;61.40;;;;;;5055011;28;20485;-74
2021/01/22 04:08:46;;;;;;;109.35;44.17;;;5.10;61.40;;;;;;5054972;28;20111;-74
2021/01/22 04:11:12;;;;;;;109.82;42.80;;;5.10;61.40;;;;;;5054484;28;20044;-77
2021/01/22 04:13:38;;;;;;;105.55;43.83;;;5.10;61.50;;;;;;5054867;28;20028;-75
2021/01/22 04:16:04;;;;;;;90.80;37.60;;;5.10;61.50;;;;;;5036639;28;20029;-78
2021/01/22 04:18:30;;;;;;;80.43;33.42;;;5.10;61.40;;;;;;5034843;28;20096;-69
2021/01/22 04:20:55;;;;;;;85.90;34.25;;;5.00;61.20;;;;;;5018907;28;20129;-69
2021/01/22 04:23:21;;;;;;;78.97;34.30;;;5.10;61.30;;;;;;5015235;28;20072;-68
2021/01/22 04:25:48;;;;;;;97.47;39.03;;;5.00;61.20;;;;;;5014840;28;20033;-70
2021/01/22 04:28:14;;;;;;;86.93;36.33;;;5.00;61.20;;;;;;5021218;28;20052;-70
2021/01/22 04:30:40;;;;;;;92.10;36.55;;;5.00;61.20;;;;;;5034568;28;20113;-71
2021/01/22 04:33:05;;;;;;;106.88;42.80;;;5.00;61.20;;;;;;5034390;28;20498;-71
2021/01/22 04:35:31;;;;;;;103.15;40.28;;;4.90;60.70;;;;;;5034282;28;20048;-78
2021/01/22 04:37:57;;;;;;;102.22;39.72;;;4.80;60.50;;;;;;5016783;28;20034;-74
2021/01/22 04:40:25;;;;;;;97.93;39.42;;;4.60;60.50;;;;;;5034158;28;20048;-73
2021/01/22 04:42:51;;;;;;;102.03;38.63;;;4.50;60.70;;;;;;5036679;28;20021;-75
2021/01/22 04:45:17;;;;;;;99.47;38.00;;;4.40;61.00;;;;;;5054074;28;20553;-75
2021/01/22 04:47:43;;;;;;;92.70;37.60;;;4.40;61.40;;;;;;5054096;28;20116;-73
2021/01/22 04:50:15;;;;;;;91.15;37.33;;;4.40;61.70;;;;;;5036313;28;20500;-75
2021/01/22 04:52:43;;;;;;;69.68;29.65;;;4.40;62.00;;;;;;5036337;28;20060;-83
2021/01/22 04:55:13;;;;;;;65.05;29.27;;;4.40;62.20;;;;;;5054130;28;20412;-80
2021/01/22 04:57:43;;;;;;;73.57;30.25;;;4.30;62.10;;;;;;5036131;28;20029;-72
2021/01/22 05:00:11;;;;;;;75.40;30.42;;;4.30;62.00;;;;;;5054025;28;20052;-71
2021/01/22 05:02:37;;;;;;;67.38;29.63;;;4.20;61.90;;;;;;5054087;28;20024;-75
2021/01/22 05:05:05;;;;;;;72.38;29.23;;;4.20;62.10;;;;;;5029041;28;20034;-80
2021/01/22 05:07:31;;;;;;;69.55;28.23;;;4.20;62.30;;;;;;5013998;28;20022;-73
2021/01/22 05:09:57;;;;;;;63.15;27.70;;;4.20;62.40;;;;;;5014001;28;20384;-71
2021/01/22 05:12:24;;;;;;;65.40;28.45;;;4.20;62.50;;;;;;5014297;28;20396;-74
2021/01/22 05:14:49;;;;;;;71.75;31.20;;;4.30;62.70;;;;;;5013878;28;20034;-75
2021/01/22 05:17:15;;;;;;;66.28;27.95;;;4.30;62.70;;;;;;5013953;28;20093;-71
2021/01/22 05:19:42;;;;;;;61.55;26.00;;;4.40;62.80;;;;;;5013823;28;20041;-69
2021/01/22 05:22:17;;;;;;;71.90;31.67;;;4.50;62.80;;;;;;5013958;28;20033;-71
2021/01/22 05:24:43;;;;;;;111.55;44.20;;;4.60;62.80;;;;;;5013831;28;20048;-72
2021/01/22 05:27:13;;;;;;;122.00;47.22;;;4.60;62.90;;;;;;5013859;28;20535;-72
2021/01/22 05:29:40;;;;;;;92.68;38.65;;;4.70;63.10;;;;;;5014351;28;20460;-71
2021/01/22 05:32:29;;;;;;;73.68;32.95;;;4.80;63.20;;;;;;5022281;28;20470;-73
2021/01/22 05:34:55;;;;;;;92.78;37.17;;;4.80;63.20;;;;;;5014284;28;20033;-76
2021/01/22 05:37:24;;;;;;;95.70;38.55;;;4.90;63.20;;;;;;5013732;28;20030;-76
2021/01/22 05:40:13;;;;;;;87.18;35.25;;;5.00;63.20;;;;;;5013681;28;20533;-75
2021/01/22 05:43:05;;;;;;;81.97;35.35;;;5.10;63.20;;;;;;5013953;28;20387;-73
2021/01/22 05:45:47;;;;;;;98.78;38.45;;;5.10;63.00;;;;;;5029544;28;20033;-74
2021/01/22 05:48:19;;;;;;;77.20;32.95;;;5.20;63.00;;;;;;5053441;28;20024;-72
2021/01/22 05:50:52;;;;;;;111.07;47.38;;;5.30;63.00;;;;;;5053230;28;20533;-72
2021/01/22 05:53:19;;;;;;;99.88;42.13;;;5.30;62.70;;;;;;5057120;28;20028;-71
2021/01/22 05:55:45;;;;;;;87.65;37.00;;;5.40;62.50;;;;;;5059800;28;20021;-72
2021/01/22 05:58:27;;;;;;;73.97;32.17;;;5.40;62.30;;;;;;5041934;28;20478;-73
2021/01/22 06:01:08;;;;;;;81.43;34.95;;;5.40;62.20;;;;;;5060111;28;20475;-69
2021/01/22 06:03:36;;;;;;;82.30;39.15;;;5.40;61.70;;;;;;5058718;28;20059;-73
2021/01/22 06:06:02;;;;;;;84.50;36.60;;;5.40;61.50;;;;;;5020925;28;20030;-79
2021/01/22 06:08:28;;;;;;;77.97;32.78;;;5.40;61.50;;;;;;5020055;28;20491;-80
2021/01/22 06:10:55;;;;;;;77.97;32.53;;;5.40;61.70;;;;;;5019955;28;20049;-81
2021/01/22 06:13:25;;;;;;;83.28;34.85;;;5.40;61.90;;;;;;5005397;28;20029;-70
2021/01/22 06:15:54;;;;;;;69.63;30.95;;;5.40;61.90;;;;;;5038742;28;20064;-71
2021/01/22 06:18:26;;;;;;;74.53;34.15;;;5.50;62.00;;;;;;5039051;28;20029;-77
2021/01/22 06:20:59;;;;;;;81.20;33.80;;;5.50;62.00;;;;;;5031233;28;20525;-84
2021/01/22 06:23:24;;;;;;;67.95;30.73;;;5.60;62.10;;;;;;5039624;28;20056;-75
2021/01/22 06:25:51;;;;;;;61.05;28.40;;;5.60;62.10;;;;;;5038894;28;20478;-77
2021/01/22 06:28:19;;;;;;;65.97;29.67;;;5.70;62.10;;;;;;5038916;28;20025;-78
2021/01/22 06:30:45;;;;;;;54.63;26.10;;;5.70;61.90;;;;;;5051763;28;20444;-77
2021/01/22 06:33:11;;;;;;;58.58;27.40;;;5.80;61.90;;;;;;5058793;28;20071;-77
2021/01/22 06:35:37;;;;;;;59.95;30.13;;;5.80;61.70;;;;;;5058396;28;20108;-77
2021/01/22 06:38:04;;;;;;;61.95;28.23;;;5.80;61.40;;;;;;5058714;28;20025;-78
2021/01/22 06:40:30;;;;;;;61.20;27.52;;;5.80;61.10;;;;;;5057427;28;20497;-78
2021/01/22 06:42:56;;;;;;;68.32;29.17;;;5.70;60.70;;;;;;5058672;28;20118;-77
2021/01/22 06:45:24;;;;;;;57.08;28.25;;;5.70;60.50;;;;;;5058453;28;20082;-77
2021/01/22 06:48:01;;;;;;;51.13;25.08;;;5.60;60.50;;;;;;5058611;28;20493;-77
2021/01/22 06:50:28;;;;;;;49.13;22.70;;;5.60;60.40;;;;;;5058634;28;20537;-77
2021/01/22 06:53:08;;;;;;;50.90;24.52;;;5.60;60.50;;;;;;5058571;28;20135;-77
2021/01/22 06:55:59;;;;;;;54.58;25.27;;;5.50;60.50;;;;;;5058708;28;20021;-77
2021/01/22 06:58:33;;;;;;;47.13;23.65;;;5.40;60.50;;;;;;5058415;28;20482;-77
2021/01/22 07:01:00;;;;;;;52.70;24.38;;;5.40;60.70;;;;;;5057261;28;20112;-77
2021/01/22 07:03:35;;;;;;;47.22;24.00;;;5.40;60.80;;;;;;5040622;28;20125;-77
2021/01/22 07:06:02;;;;;;;43.28;20.60;;;5.40;61.00;;;;;;5053758;28;20059;-78
2021/01/22 07:08:49;;;;;;;69.53;32.50;;;5.30;61.10;;;;;;5053538;28;20013;-77
2021/01/22 07:11:16;;;;;;;122.38;49.78;;;5.30;61.20;;;;;;5054176;28;20024;-78
2021/01/22 07:13:42;;;;;;;100.20;45.55;;;5.30;61.30;;;;;;5054844;28;20029;-77
2021/01/22 07:16:23;;;;;;;71.78;34.72;;;5.20;61.40;;;;;;5054537;28;20052;-77
2021/01/22 07:18:57;;;;;;;59.70;28.40;;;5.20;61.50;;;;;;5052572;28;20055;-77
2021/01/22 07:21:23;;;;;;;77.27;39.23;;;5.30;61.80;;;;;;5024213;28;20092;-77
2021/01/22 07:24:04;;;;;;;107.65;50.75;;;5.30;61.90;;;;;;5021716;28;20273;-78
2021/01/22 07:26:34;;;;;;;70.78;33.95;;;5.30;62.10;;;;;;5002798;28;20033;-78
2021/01/22 07:29:24;;;;;;;67.57;29.92;;;5.40;62.40;;;;;;5025030;28;20022;-77
2021/01/22 07:32:04;;;;;;;67.05;27.70;;;5.40;62.50;;;;;;5035359;28;20092;-77
2021/01/22 07:34:38;;;;;;;82.25;35.80;;;5.50;62.60;;;;;;5041647;28;20021;-78
2021/01/22 07:37:05;;;;;;;74.95;37.53;;;5.50;62.60;;;;;;5031513;28;20036;-77
2021/01/22 07:39:31;;;;;;;70.63;35.67;;;5.60;62.60;;;;;;5031690;28;20387;-77
2021/01/22 07:42:11;;;;;;;64.97;31.05;;;5.70;62.60;;;;;;5030423;28;20036;-77
2021/01/22 07:44:38;;;;;;;64.65;29.05;;;5.80;62.60;;;;;;5038901;28;20031;-77
2021/01/22 07:47:05;;;;;;;72.10;33.65;;;5.80;62.60;;;;;;5026047;28;20045;-77
2021/01/22 07:49:32;;;;;;;57.63;28.08;;;5.90;62.60;;;;;;5039257;28;20021;-78
2021/01/22 07:52:06;;;;;;;65.88;29.30;;;6.00;62.50;;;;;;5028702;28;20021;-78
2021/01/22 07:54:42;;;;;;;72.88;33.22;;;6.00;62.40;;;;;;5025185;28;20075;-78
2021/01/22 07:57:22;;;;;;;63.65;30.60;;;6.10;62.20;;;;;;5035121;28;20041;-77
2021/01/22 07:59:59;;;;;;;52.00;25.58;;;6.20;62.10;;;;;;5030876;28;20029;-77
2021/01/22 08:02:25;;;;;;;52.67;26.45;;;6.30;62.10;;;;;;5014840;28;20356;-78
2021/01/22 08:04:59;;;;;;;50.60;24.90;;;6.30;62.10;;;;;;5029450;28;20032;-78
2021/01/22 08:07:41;;;;;;;66.03;27.58;;;6.40;61.70;;;;;;5033990;28;20067;-79
2021/01/22 08:10:11;;;;;;;60.92;25.27;;;6.40;61.20;;;;;;5034070;28;20479;-78
2021/01/22 08:12:53;;;;;;;51.08;24.83;;;6.50;61.20;;;;;;5034253;28;20036;-79
2021/01/22 08:15:19;;;;;;;65.05;30.45;;;6.50;61.20;;;;;;5027556;28;20562;-78
2021/01/22 08:17:49;;;;;;;50.47;23.48;;;6.60;61.20;;;;;;5031610;28;20144;-78
2021/01/22 08:20:17;;;;;;;58.67;26.20;;;6.60;61.20;;;;;;5032430;28;20584;-79
2021/01/22 08:22:43;;;;;;;65.30;28.30;;;6.70;61.40;;;;;;5029319;28;20045;-79
2021/01/22 08:25:10;;;;;;;53.72;26.58;;;6.70;61.30;;;;;;5032299;28;20060;-78
2021/01/22 08:27:36;;;;;;;52.72;25.40;;;6.80;61.10;;;;;;5015912;28;20025;-79
2021/01/22 08:30:03;;;;;;;53.55;25.20;;;6.80;60.60;;;;;;5021979;28;20079;-79
2021/01/22 08:32:30;;;;;;;59.25;27.13;;;6.90;60.50;;;;;;5024422;28;20025;-78
2021/01/22 08:34:57;;;;;;;50.92;25.75;;;6.90;60.40;;;;;;5028814;28;20034;-80
2021/01/22 08:37:23;;;;;;;52.80;25.10;;;7.00;60.60;;;;;;5033233;28;20030;-79
2021/01/22 08:40:00;;;;;;;74.70;34.80;;;7.10;60.90;;;;;;5017928;28;20025;-78
2021/01/22 08:42:27;;;;;;;78.90;34.50;;;7.20;60.40;;;;;;5027761;28;20585;-79
2021/01/22 08:45:01;;;;;;;75.13;33.47;;;7.30;60.10;;;;;;5031772;28;20068;-78
2021/01/22 08:47:29;;;;;;;69.22;31.75;;;7.30;60.00;;;;;;5018756;28;20056;-80
2021/01/22 08:50:03;;;;;;;70.53;34.67;;;7.40;60.10;;;;;;5040834;28;20030;-78
2021/01/22 08:52:29;;;;;;;;;;;7.60;60.00;;;;;;5010458;28;20076;-80
2021/01/22 08:54:59;;;;;;;62.55;29.23;;;7.70;60.50;;;;;;5030005;28;20000;-79
2021/01/22 08:57:29;;;;;;;55.05;26.25;;;7.80;59.90;;;;;;5026887;28;20029;-79
2021/01/22 08:59:56;;;;;;;58.72;26.98;;;7.90;59.80;;;;;;5015266;28;20036;-81
2021/01/22 09:02:42;;;;;;;59.58;27.98;;;8.00;59.60;;;;;;5021553;28;20031;-80
2021/01/22 09:05:13;;;;;;;56.58;26.88;;;8.10;59.30;;;;;;5035396;28;20029;-79
2021/01/22 09:07:40;;;;;;;55.40;26.38;;;8.10;58.90;;;;;;5033075;28;20498;-77
2021/01/22 09:10:25;;;;;;;52.85;24.85;;;8.20;58.80;;;;;;5015338;28;20026;-80
2021/01/22 09:12:51;;;;;;;45.65;24.02;;;8.20;58.60;;;;;;5033021;28;20018;-79
2021/01/22 09:15:17;;;;;;;52.22;26.05;;;8.20;58.50;;;;;;5040375;28;20039;-79
2021/01/22 09:17:50;;;;;;;55.58;27.10;;;8.20;58.30;;;;;;5038770;28;20046;-80
2021/01/22 09:20:19;;;;;;;66.95;30.73;;;8.20;58.00;;;;;;5042997;28;20528;-79
2021/01/22 09:22:47;;;;;;;57.28;26.20;;;8.10;57.70;;;;;;5034874;28;20033;-80
2021/01/22 09:25:15;;;;;;;58.92;27.98;;;8.10;57.80;;;;;;5050585;28;20115;-79
2021/01/22 09:27:46;;;;;;;60.45;29.80;;;8.00;57.90;;;;;;5049340;28;20505;-81
2021/01/22 09:30:17;;;;;;;57.00;29.60;;;8.00;57.90;;;;;;5028352;28;20060;-80
2021/01/22 09:32:51;;;;;;;60.03;29.10;;;7.90;57.90;;;;;;5034175;28;20025;-79
2021/01/22 09:35:17;;;;;;;;;;;7.80;57.90;;;;;;5050738;28;20055;-78
2021/01/22 09:37:43;;;;;;;55.67;26.55;;;7.80;58.30;;;;;;5047847;28;19908;-81
2021/01/22 09:40:10;;;;;;;63.92;28.67;;;7.70;58.10;;;;;;5047308;28;20105;-79
2021/01/22 09:42:36;;;;;;;61.42;28.55;;;7.70;58.30;;;;;;5033173;28;20030;-80
2021/01/22 09:45:12;;;;;;;49.47;24.92;;;7.60;58.50;;;;;;5034339;28;20142;-78
2021/01/22 09:47:39;;;;;;;47.28;24.10;;;7.60;58.80;;;;;;5047417;28;20446;-79
2021/01/22 09:50:07;;;;;;;55.15;26.20;;;7.60;59.10;;;;;;5044695;28;20383;-80
2021/01/22 09:52:38;;;;;;;50.33;25.95;;;7.60;59.10;;;;;;5029263;28;20033;-78
2021/01/22 09:55:15;;;;;;;54.70;27.27;;;7.70;59.10;;;;;;5044681;28;20033;-78
2021/01/22 09:57:42;;;;;;;65.90;31.33;;;7.70;59.10;;;;;;5033302;28;20390;-78
2021/01/22 10:00:20;;;;;;;59.33;28.55;;;7.80;59.10;;;;;;5043523;28;20021;-80
2021/01/22 10:02:46;;;;;;;65.93;28.83;;;7.70;59.00;;;;;;5030861;28;20037;-78
2021/01/22 10:05:12;;;;;;;61.75;31.63;;;7.80;59.10;;;;;;5035169;28;20033;-78
2021/01/22 10:07:38;;;;;;;59.63;29.05;;;7.80;58.90;;;;;;5051034;28;20029;-78
2021/01/22 10:10:05;;;;;;;58.92;26.20;;;7.80;59.00;;;;;;5065527;28;20017;-78
2021/01/22 10:12:30;;;;;;;61.08;28.55;;;7.90;59.10;;;;;;5030811;28;20025;-80
2021/01/22 10:14:56;;;;;;;56.50;28.20;;;7.90;59.00;;;;;;5048019;28;20075;-79
2021/01/22 10:17:22;;;;;;;66.30;34.72;;;8.00;59.10;;;;;;5051728;28;20021;-79
2021/01/22 10:19:48;;;;;;;91.90;44.90;;;7.90;58.90;;;;;;5051965;28;20048;-78
2021/01/22 10:22:13;;;;;;;104.15;51.03;;;8.00;58.80;;;;;;5051117;28;20401;-78
2021/01/22 10:24:41;;;;;;;116.93;56.55;;;8.00;58.70;;;;;;5044487;28;20036;-79
2021/01/22 10:27:07;;;;;;;111.18;55.78;;;8.00;58.60;;;;;;5051745;28;20107;-79
2021/01/22 10:29:33;;;;;;;113.90;55.28;;;8.10;58.60;;;;;;5050520;28;20112;-78
2021/01/22 10:31:58;;;;;;;105.78;53.95;;;8.10;58.60;;;;;;5048346;28;20052;-79
2021/01/22 10:34:24;;;;;;;89.65;46.30;;;8.10;58.60;;;;;;5068904;28;20025;-78
2021/01/22 10:36:50;;;;;;;86.40;45.28;;;8.10;58.60;;;;;;5067790;28;20057;-77
2021/01/22 10:39:15;;;;;;;85.00;44.25;;;8.20;58.70;;;;;;5032608;28;20073;-79
2021/01/22 10:41:41;;;;;;;98.45;50.40;;;8.20;58.80;;;;;;5055803;28;20528;-79
2021/01/22 10:44:07;;;;;;;95.95;49.65;;;8.30;58.60;;;;;;5055613;28;20029;-79
2021/01/22 10:46:32;;;;;;;92.78;47.05;;;8.30;58.70;;;;;;5055729;28;20047;-80
2021/01/22 10:48:59;;;;;;;98.40;50.45;;;8.40;58.80;;;;;;5052862;28;20466;-80
2021/01/22 10:51:25;;;;;;;107.45;51.50;;;8.40;58.50;;;;;;5058512;28;20170;-80
2021/01/22 10:53:50;;;;;;;110.10;52.35;;;8.50;58.60;;;;;;5075578;28;20537;-78
2021/01/22 10:56:16;;;;;;;95.85;48.63;;;8.50;58.50;;;;;;5053433;28;20020;-80
2021/01/22 10:58:42;;;;;;;114.75;53.90;;;8.60;58.50;;;;;;5051636;28;20024;-79
2021/01/22 11:01:08;;;;;;;107.35;55.55;;;8.60;58.50;;;;;;5055259;28;20028;-79
2021/01/22 11:03:33;;;;;;;99.15;50.10;;;8.70;58.50;;;;;;5049530;28;20057;-78
2021/01/22 11:05:59;;;;;;;95.60;44.75;;;8.70;58.30;;;;;;5049914;28;20029;-78
2021/01/22 11:08:25;;;;;;;92.72;42.85;;;8.80;58.10;;;;;;5038035;28;20048;-78
2021/01/22 11:10:53;;;;;;;86.35;42.22;;;8.80;58.00;;;;;;5036620;28;20386;-78
2021/01/22 11:13:20;;;;;;;83.78;39.78;;;8.80;58.00;;;;;;5050903;28;20025;-79
2021/01/22 11:15:46;;;;;;;74.88;39.38;;;8.90;58.20;;;;;;5055236;28;20024;-80
2021/01/22 11:18:13;;;;;;;89.35;41.65;;;8.90;58.30;;;;;;5053828;28;20063;-79
2021/01/22 11:20:39;;;;;;;84.90;38.58;;;9.00;58.40;;;;;;5053889;28;20049;-78
2021/01/22 11:23:05;;;;;;;66.78;34.15;;;9.10;58.50;;;;;;5041677;28;20027;-78
2021/01/22 11:25:30;;;;;;;61.20;32.95;;;9.10;58.40;;;;;;5047918;28;20029;-79
2021/01/22 11:27:56;;;;;;;75.15;37.45;;;9.10;58.40;;;;;;5054299;28;20026;-78
2021/01/22 11:30:22;;;;;;;64.25;34.63;;;9.20;58.30;;;;;;5043454;28;20020;-79
2021/01/22 11:32:48;;;;;;;71.22;35.15;;;9.20;58.30;;;;;;5041566;28;20033;-78
2021/01/22 11:35:13;;;;;;;73.22;35.70;;;9.20;58.20;;;;;;5044223;28;20021;-79
2021/01/22 11:37:41;;;;;;;73.10;35.80;;;9.10;58.10;;;;;;5053482;28;20076;-77
2021/01/22 11:40:10;;;;;;;67.90;35.42;;;9.20;58.30;;;;;;5032184;28;20041;-79
2021/01/22 11:42:36;;;;;;;72.25;36.65;;;9.20;58.30;;;;;;5052528;28;20024;-78
2021/01/22 11:45:04;;;;;;;79.95;36.83;;;9.20;58.40;;;;;;5053640;28;20061;-79
2021/01/22 11:47:30;;;;;;;86.13;39.03;;;9.20;58.50;;;;;;5045172;28;20021;-78
2021/01/22 11:49:56;;;;;;;76.70;38.97;;;9.20;58.50;;;;;;5043333;28;20036;-79
2021/01/22 11:52:22;;;;;;;67.35;35.85;;;9.30;58.50;;;;;;5038435;28;20113;-77
2021/01/22 11:54:49;;;;;;;67.45;35.85;;;9.30;58.40;;;;;;5037777;28;20372;-79
2021/01/22 11:57:15;;;;;;;68.55;36.90;;;9.40;58.40;;;;;;5029106;28;20063;-77
2021/01/22 11:59:41;;;;;;;75.22;35.55;;;9.40;58.50;;;;;;5051828;28;20060;-78
2021/01/22 12:02:07;;;;;;;69.95;35.45;;;9.50;58.50;;;;;;5036270;28;20055;-78
2021/01/22 12:04:33;;;;;;;67.35;34.78;;;9.50;58.20;;;;;;5054152;28;20044;-76
2021/01/22 12:07:00;;;;;;;72.95;36.17;;;9.60;58.20;;;;;;5055064;28;20029;-89
2021/01/22 12:09:26;;;;;;;72.38;36.97;;;9.70;58.30;;;;;;5042563;28;20017;-75
2021/01/22 12:11:51;;;;;;;65.88;35.00;;;9.70;58.20;;;;;;5051856;28;20025;-75
2021/01/22 12:14:17;;;;;;;86.65;41.42;;;9.80;58.10;;;;;;5048138;28;20032;-75
2021/01/22 12:16:45;;;;;;;101.22;43.03;;;9.80;57.80;;;;;;5046839;28;20115;-74
2021/01/22 12:19:11;;;;;;;84.38;39.55;;;9.90;57.70;;;;;;5029520;28;20033;-77
2021/01/22 12:21:36;;;;;;;80.82;39.65;;;9.90;57.70;;;;;;5052832;28;20035;-73
2021/01/22 12:24:02;;;;;;;75.20;38.70;;;10.00;57.70;;;;;;5030256;28;20029;-77
2021/01/22 12:26:29;;;;;;;82.43;40.28;;;10.00;57.70;;;;;;5053352;28;20029;-85
2021/01/22 12:28:57;;;;;;;73.82;36.45;;;10.10;57.50;;;;;;5054711;28;20048;-83
2021/01/22 12:31:24;;;;;;;76.82;37.40;;;10.10;57.50;;;;;;5050812;28;20562;-79
2021/01/22 12:33:49;;;;;;;72.57;38.33;;;10.20;57.50;;;;;;5039839;28;20103;-80
2021/01/22 12:36:15;;;;;;;75.43;37.55;;;10.20;57.50;;;;;;5066166;28;20060;-80
2021/01/22 12:38:41;;;;;;;73.20;38.63;;;10.30;57.50;;;;;;5039572;28;20554;-82